M/T Filos — 9HQB8 — position and weather

sailwx.info

Track history (hours):
 
Tides and Currents Weather Stations Pressure Air Temp Water Temp Dewpoint Dewpoint Depression Visibility Wind Speed Wind Dir Waves Ship Positions

M/T Filos

Last reported at 2016-Jul-31 04:32 UTC. Time now 2016-Jul-31 05:31 UTC.
Position N 51°20' E 002°36'.

Length 180 m; draft 7.4 m.

Type: Tanker. MMSI: 224561000.

Date/timePositionNaut miles runAvg speedWind from/ knotsBaromVisibWave heightAir tempDewpointWater temp
2016-Jul-31 04:32N 51°20' E 002°36'0 0.0
2016-Jul-31 03:32N 51°20' E 002°36'0 0.0
2016-Jul-31 02:32N 51°20' E 002°36'0 0.1
2016-Jul-31 01:32N 51°20' E 002°36'0 0.0
2016-Jul-31 00:32N 51°20' E 002°36'0 0.0
2016-Jul-30 22:32N 51°20' E 002°36'0 0.0
2016-Jul-30 21:31N 51°20' E 002°36'0 0.0
2016-Jul-30 20:32N 51°20' E 002°36'0 0.1
2016-Jul-30 19:31N 51°20' E 002°36'0 0.1
2016-Jul-30 18:30N 51°20' E 002°36'0 0.0
2016-Jul-30 17:32N 51°20' E 002°36'0 0.0
2016-Jul-30 16:33N 51°20' E 002°36'0 0.0
2016-Jul-30 15:31N 51°20' E 002°36'0 0.0
2016-Jul-30 14:31N 51°20' E 002°36'0 0.1
2016-Jul-30 13:32N 51°20' E 002°36'0 0.0
2016-Jul-30 12:31N 51°20' E 002°36'2 2.5
2016-Jul-30 11:34N 51°22' E 002°32'8 8.5
2016-Jul-30 10:34N 51°19' E 002°19'10 9.6
2016-Jul-30 09:34N 51°14' E 002°06'1010.0
2016-Jul-30 08:34N 51°09' E 001°52'1010.0
2016-Jul-30 07:34N 51°03' E 001°40'10 9.4
2016-Jul-30 06:33N 50°56' E 001°29'9 9.1
2016-Jul-30 05:33N 50°48' E 001°24'49 7.9
2016-Jul-29 23:20N 50°22' E 000°18'6 8.1
2016-Jul-29 22:33N 50°19' E 000°09'9 8.6
2016-Jul-29 21:34N 50°15' W 000°03'9 8.9
2016-Jul-29 20:34N 50°06' W 000°04'9 9.0
2016-Jul-29 19:33N 49°57' W 000°06'9 9.1
2016-Jul-29 18:34N 49°48' W 000°08'9 9.4
2016-Jul-29 17:34N 49°39' W 000°07'9 9.1
2016-Jul-29 16:34N 49°30' W 000°07'9 9.5
2016-Jul-29 15:34N 49°26' E 000°07'10 9.7
2016-Jul-29 14:34N 49°26' E 000°22'9 9.3
2016-Jul-29 13:34N 49°26' E 000°36'8 7.9
2016-Jul-29 12:32N 49°29' E 000°47'1 0.1
2016-Jul-28 15:33N 49°30' E 000°46'9 8.7
2016-Jul-28 14:33N 49°26' E 000°34'1010.3
2016-Jul-28 13:33N 49°26' E 000°19'1212.3
2016-Jul-28 12:33N 49°28' W 000°00'8 8.2
2016-Jul-28 11:33N 49°31' W 000°11'1211.5
2016-Jul-28 10:33N 49°43' W 000°09'1211.7
2016-Jul-28 09:33N 49°54' W 000°05'1211.7
2016-Jul-28 08:33N 50°06' W 000°00'1111.2
2016-Jul-28 07:33N 50°17' E 000°01'1110.6
2016-Jul-28 06:30N 50°28' W 000°02'1111.5
2016-Jul-28 05:33N 50°31' E 000°14'4210.3
2016-Jul-28 01:29N 50°54' E 001°10'1212.6
2016-Jul-28 00:33N 51°02' E 001°24'1312.7
2016-Jul-27 23:33N 51°10' E 001°40'1111.4
2016-Jul-27 22:33N 51°19' E 001°52'9 9.4
2016-Jul-27 21:33N 51°24' E 002°04'1010.4
2016-Jul-27 20:33N 51°21' E 002°20'11 9.6
2016-Jul-27 19:27N 51°23' E 002°37'8 9.1
2016-Jul-27 18:33N 51°22' E 002°50'9 8.8
2016-Jul-27 17:32N 51°24' E 003°04'8 8.4
2016-Jul-27 16:33N 51°25' E 003°17'9 9.2
2016-Jul-27 15:33N 51°25' E 003°32'7 6.9
2016-Jul-27 14:33N 51°24' E 003°43'6 5.9
2016-Jul-27 13:33N 51°20' E 003°49'3 3.1
2016-Jul-27 12:33N 51°17' E 003°50'0 0.1
2016-Jul-27 11:32N 51°17' E 003°51'0 0.0
2016-Jul-27 10:23N 51°17' E 003°51'0 0.0
2016-Jul-27 09:17N 51°17' E 003°51'0 0.0
2016-Jul-27 08:20N 51°17' E 003°51'0 0.0
2016-Jul-27 07:32N 51°17' E 003°51'0 0.0
2016-Jul-27 06:32N 51°17' E 003°51'0 0.0
2016-Jul-27 05:32N 51°17' E 003°51'0 0.0
2016-Jul-27 04:29N 51°17' E 003°51'0 0.0
2016-Jul-27 03:32N 51°17' E 003°51'0 0.0
2016-Jul-27 02:29N 51°17' E 003°51'0 0.0
2016-Jul-27 01:29N 51°17' E 003°51'0 0.0
2016-Jul-27 00:32N 51°17' E 003°51'0 0.0
2016-Jul-26 23:32N 51°17' E 003°51'0 0.0
2016-Jul-26 22:32N 51°17' E 003°51'0 0.0
2016-Jul-26 21:32N 51°17' E 003°51'0 0.0
2016-Jul-26 20:32N 51°17' E 003°51'0 0.0
2016-Jul-26 19:29N 51°17' E 003°51'0 0.0
2016-Jul-26 18:32N 51°17' E 003°51'0 0.0
2016-Jul-26 17:32N 51°17' E 003°51'0 0.0
2016-Jul-26 16:29N 51°17' E 003°51'0 0.0
2016-Jul-26 15:32N 51°17' E 003°51'0 0.0
2016-Jul-26 14:17N 51°17' E 003°51'0 0.0
2016-Jul-26 13:29N 51°17' E 003°51'0 0.0
2016-Jul-26 12:26N 51°17' E 003°51'0 0.0
2016-Jul-26 11:32N 51°17' E 003°51'0 0.0
2016-Jul-26 10:26N 51°17' E 003°51'0 0.0
2016-Jul-26 09:32N 51°17' E 003°51'0 0.0
2016-Jul-26 08:29N 51°17' E 003°51'0 0.0
2016-Jul-26 07:32N 51°17' E 003°51'0 0.0
2016-Jul-26 06:29N 51°17' E 003°51'0 0.0
2016-Jul-26 05:29N 51°17' E 003°51'0 0.0
2016-Jul-26 04:32N 51°17' E 003°51'0 0.0
2016-Jul-26 03:29N 51°17' E 003°51'0 0.0
2016-Jul-26 02:26N 51°17' E 003°51'2 1.9
2016-Jul-26 01:33N 51°18' E 003°50'2 2.1
2016-Jul-26 00:33N 51°20' E 003°49'4 4.4
2016-Jul-25 23:33N 51°23' E 003°43'8 7.7
2016-Jul-25 22:34N 51°27' E 003°33'1010.4
2016-Jul-25 21:33N 51°35' E 003°23'1110.7
2016-Jul-25 20:32N 51°45' E 003°16'1 1.2
2016-Jul-25 19:30N 51°46' E 003°17'0 0.0
2016-Jul-25 18:33N 51°46' E 003°17'0 0.0
2016-Jul-25 17:24N 51°46' E 003°17'0 0.0
2016-Jul-25 16:30N 51°46' E 003°17'0 0.0
2016-Jul-25 15:33N 51°46' E 003°17'0 0.1
2016-Jul-25 14:27N 51°46' E 003°17'0 0.0
2016-Jul-25 08:04N 51°46' E 003°17'0 0.0
2016-Jul-25 07:31N 51°46' E 003°17'0 0.0
2016-Jul-25 06:28N 51°46' E 003°17'0 0.0
2016-Jul-25 03:31N 51°46' E 003°17'0 0.0
2016-Jul-24 20:28N 51°46' E 003°17'0 0.0
2016-Jul-24 19:28N 51°46' E 003°17'0 0.0
2016-Jul-24 18:25N 51°46' E 003°17'9 9.9
2016-Jul-24 17:33N 51°46' E 003°03'1212.2
2016-Jul-24 16:33N 51°46' E 002°44'1312.6
2016-Jul-24 15:33N 51°39' E 002°28'1312.9
2016-Jul-24 14:34N 51°30' E 002°13'1111.0
2016-Jul-24 13:34N 51°24' E 001°57'1110.9
2016-Jul-24 12:33N 51°28' E 001°41'10 9.5
2016-Jul-24 11:34N 51°28' E 001°26'1111.1
2016-Jul-24 10:33N 51°29' E 001°08'1212.0
2016-Jul-24 09:33N 51°29' E 000°49'1313.0
2016-Jul-24 08:33N 51°29' E 000°28'9 8.7
2016-Jul-24 07:33N 51°29' E 000°14'4 4.1
2016-Jul-24 06:33N 51°31' E 000°08'0 0.0
2016-Jul-24 05:33N 51°31' E 000°08'0 0.0
2016-Jul-24 04:33N 51°31' E 000°08'0 0.0
2016-Jul-24 03:33N 51°31' E 000°08'0 0.0
2016-Jul-24 02:33N 51°31' E 000°08'0 0.0
2016-Jul-24 01:33N 51°31' E 000°08'0 0.0
2016-Jul-24 00:33N 51°31' E 000°08'0 0.0
2016-Jul-23 23:33N 51°31' E 000°08'0 0.0
2016-Jul-23 22:33N 51°31' E 000°08'0 0.0
2016-Jul-23 21:33N 51°31' E 000°08'0 0.0
2016-Jul-23 20:33N 51°31' E 000°08'0 0.0
2016-Jul-23 19:33N 51°31' E 000°08'0 0.0
2016-Jul-23 18:33N 51°31' E 000°08'0 0.0
2016-Jul-23 17:33N 51°31' E 000°08'0 0.0
2016-Jul-23 16:33N 51°31' E 000°08'0 0.0
2016-Jul-23 15:33N 51°31' E 000°08'0 0.0
2016-Jul-23 14:33N 51°31' E 000°08'0 0.0
2016-Jul-23 13:27N 51°31' E 000°08'0 0.0
2016-Jul-23 12:09N 51°31' E 000°08'3 4.4
2016-Jul-23 11:33N 51°29' E 000°11'1010.0
2016-Jul-23 10:34N 51°29' E 000°28'1212.1
2016-Jul-23 09:33N 51°29' E 000°47'1111.2
2016-Jul-23 08:34N 51°30' E 001°05'1010.2
2016-Jul-23 07:34N 51°29' E 001°21'6 6.0
2016-Jul-23 06:34N 51°29' E 001°31'2 1.1
2016-Jul-23 04:31N 51°31' E 001°31'0 0.0
2016-Jul-23 03:31N 51°31' E 001°31'0 0.0
2016-Jul-23 02:32N 51°31' E 001°31'0 0.0
2016-Jul-23 01:32N 51°31' E 001°31'0 0.0
2016-Jul-23 00:31N 51°31' E 001°31'9 9.0
2016-Jul-22 23:33N 51°35' E 001°43'1313.4
2016-Jul-22 22:33N 51°49' E 001°43'1414.0
2016-Jul-22 21:33N 52°03' E 001°48'1413.8
2016-Jul-22 20:34N 52°16' E 001°54'1312.8
2016-Jul-22 19:33N 52°28' E 001°60'1111.2
2016-Jul-22 18:32N 52°40' E 002°03'1010.2
2016-Jul-22 17:33N 52°48' E 001°54'9 9.6
2016-Jul-22 16:33N 52°54' E 001°41'9 8.9
2016-Jul-22 15:33N 53°00' E 001°31'9 9.2
2016-Jul-22 14:33N 53°07' E 001°21'9 9.4
2016-Jul-22 13:33N 53°14' E 001°10'9 9.5
2016-Jul-22 12:34N 53°21' E 000°59'1010.2
2016-Jul-22 11:33N 53°26' E 000°44'1010.6
2016-Jul-22 10:33N 53°31' E 000°28'1110.9
2016-Jul-22 09:33N 53°33' E 000°10'1313.1
2016-Jul-22 08:34N 53°38' W 000°10'1 1.1
2016-Jul-22 07:33N 53°38' W 000°12'0 0.0
2016-Jul-22 04:33N 53°38' W 000°12'0 0.0
2016-Jul-22 03:33N 53°38' W 000°12'0 0.0
2016-Jul-22 02:33N 53°38' W 000°12'0 0.0
2016-Jul-22 01:30N 53°38' W 000°12'0 0.0
2016-Jul-22 00:24N 53°38' W 000°12'0 0.0
2016-Jul-21 23:24N 53°38' W 000°12'0 0.0
2016-Jul-21 22:27N 53°38' W 000°12'0 0.0
2016-Jul-21 21:30N 53°38' W 000°12'0 0.0
2016-Jul-21 20:27N 53°38' W 000°12'0 0.0
2016-Jul-21 19:33N 53°38' W 000°12'0 0.0
2016-Jul-21 18:33N 53°38' W 000°12'0 0.2
2016-Jul-21 17:34N 53°38' W 000°11'2 2.3
2016-Jul-21 16:33N 53°38' W 000°08'1110.8
2016-Jul-21 15:33N 53°33' E 000°09'6 5.9
2016-Jul-21 14:33N 53°33' E 000°19'1411.6
2016-Jul-21 13:21N 53°27' E 000°40'1113.0
2016-Jul-21 12:29N 53°21' E 000°56'1412.6
2016-Jul-21 11:24N 53°12' E 001°13'911.1
2016-Jul-21 10:33N 53°05' E 001°24'10 9.8
2016-Jul-21 09:33N 52°58' E 001°34'9 8.7
2016-Jul-21 08:33N 52°52' E 001°45'9 8.7
2016-Jul-21 07:33N 52°47' E 001°57'  
Track history (hours):
 
Tides and Currents Weather Stations Pressure Air Temp Water Temp Dewpoint Dewpoint Depression Visibility Wind Speed Wind Dir Waves Ship Positions

M/T Filos

Last reported at 2016-Jul-31 04:32 UTC. Time now 2016-Jul-31 05:31 UTC.
Position N 51°20' E 002°36'.

Length 180 m; draft 7.4 m.

Type: Tanker. MMSI: 224561000.

Date/timePositionNaut miles runAvg speedWind from/ knotsBaromVisibWave heightAir tempDewpointWater temp
2016-Jul-31 04:32N 51°20' E 002°36'0 0.0
2016-Jul-31 03:32N 51°20' E 002°36'0 0.0
2016-Jul-31 02:32N 51°20' E 002°36'0 0.1
2016-Jul-31 01:32N 51°20' E 002°36'0 0.0
2016-Jul-31 00:32N 51°20' E 002°36'0 0.0
2016-Jul-30 22:32N 51°20' E 002°36'0 0.0
2016-Jul-30 21:31N 51°20' E 002°36'0 0.0
2016-Jul-30 20:32N 51°20' E 002°36'0 0.1
2016-Jul-30 19:31N 51°20' E 002°36'0 0.1
2016-Jul-30 18:30N 51°20' E 002°36'0 0.0
2016-Jul-30 17:32N 51°20' E 002°36'0 0.0
2016-Jul-30 16:33N 51°20' E 002°36'0 0.0
2016-Jul-30 15:31N 51°20' E 002°36'0 0.0
2016-Jul-30 14:31N 51°20' E 002°36'0 0.1
2016-Jul-30 13:32N 51°20' E 002°36'0 0.0
2016-Jul-30 12:31N 51°20' E 002°36'2 2.5
2016-Jul-30 11:34N 51°22' E 002°32'8 8.5
2016-Jul-30 10:34N 51°19' E 002°19'10 9.6
2016-Jul-30 09:34N 51°14' E 002°06'1010.0
2016-Jul-30 08:34N 51°09' E 001°52'1010.0
2016-Jul-30 07:34N 51°03' E 001°40'10 9.4
2016-Jul-30 06:33N 50°56' E 001°29'9 9.1
2016-Jul-30 05:33N 50°48' E 001°24'49 7.9
2016-Jul-29 23:20N 50°22' E 000°18'6 8.1
2016-Jul-29 22:33N 50°19' E 000°09'9 8.6
2016-Jul-29 21:34N 50°15' W 000°03'9 8.9
2016-Jul-29 20:34N 50°06' W 000°04'9 9.0
2016-Jul-29 19:33N 49°57' W 000°06'9 9.1
2016-Jul-29 18:34N 49°48' W 000°08'9 9.4
2016-Jul-29 17:34N 49°39' W 000°07'9 9.1
2016-Jul-29 16:34N 49°30' W 000°07'9 9.5
2016-Jul-29 15:34N 49°26' E 000°07'10 9.7
2016-Jul-29 14:34N 49°26' E 000°22'9 9.3
2016-Jul-29 13:34N 49°26' E 000°36'8 7.9
2016-Jul-29 12:32N 49°29' E 000°47'1 0.1
2016-Jul-28 15:33N 49°30' E 000°46'9 8.7
2016-Jul-28 14:33N 49°26' E 000°34'1010.3
2016-Jul-28 13:33N 49°26' E 000°19'1212.3
2016-Jul-28 12:33N 49°28' W 000°00'8 8.2
2016-Jul-28 11:33N 49°31' W 000°11'1211.5
2016-Jul-28 10:33N 49°43' W 000°09'1211.7
2016-Jul-28 09:33N 49°54' W 000°05'1211.7
2016-Jul-28 08:33N 50°06' W 000°00'1111.2
2016-Jul-28 07:33N 50°17' E 000°01'1110.6
2016-Jul-28 06:30N 50°28' W 000°02'1111.5
2016-Jul-28 05:33N 50°31' E 000°14'4210.3
2016-Jul-28 01:29N 50°54' E 001°10'1212.6
2016-Jul-28 00:33N 51°02' E 001°24'1312.7
2016-Jul-27 23:33N 51°10' E 001°40'1111.4
2016-Jul-27 22:33N 51°19' E 001°52'9 9.4
2016-Jul-27 21:33N 51°24' E 002°04'1010.4
2016-Jul-27 20:33N 51°21' E 002°20'11 9.6
2016-Jul-27 19:27N 51°23' E 002°37'8 9.1
2016-Jul-27 18:33N 51°22' E 002°50'9 8.8
2016-Jul-27 17:32N 51°24' E 003°04'8 8.4
2016-Jul-27 16:33N 51°25' E 003°17'9 9.2
2016-Jul-27 15:33N 51°25' E 003°32'7 6.9
2016-Jul-27 14:33N 51°24' E 003°43'6 5.9
2016-Jul-27 13:33N 51°20' E 003°49'3 3.1
2016-Jul-27 12:33N 51°17' E 003°50'0 0.1
2016-Jul-27 11:32N 51°17' E 003°51'0 0.0
2016-Jul-27 10:23N 51°17' E 003°51'0 0.0
2016-Jul-27 09:17N 51°17' E 003°51'0 0.0
2016-Jul-27 08:20N 51°17' E 003°51'0 0.0
2016-Jul-27 07:32N 51°17' E 003°51'0 0.0
2016-Jul-27 06:32N 51°17' E 003°51'0 0.0
2016-Jul-27 05:32N 51°17' E 003°51'0 0.0
2016-Jul-27 04:29N 51°17' E 003°51'0 0.0
2016-Jul-27 03:32N 51°17' E 003°51'0 0.0
2016-Jul-27 02:29N 51°17' E 003°51'0 0.0
2016-Jul-27 01:29N 51°17' E 003°51'0 0.0
2016-Jul-27 00:32N 51°17' E 003°51'0 0.0
2016-Jul-26 23:32N 51°17' E 003°51'0 0.0
2016-Jul-26 22:32N 51°17' E 003°51'0 0.0
2016-Jul-26 21:32N 51°17' E 003°51'0 0.0
2016-Jul-26 20:32N 51°17' E 003°51'0 0.0
2016-Jul-26 19:29N 51°17' E 003°51'0 0.0
2016-Jul-26 18:32N 51°17' E 003°51'0 0.0
2016-Jul-26 17:32N 51°17' E 003°51'0 0.0
2016-Jul-26 16:29N 51°17' E 003°51'0 0.0
2016-Jul-26 15:32N 51°17' E 003°51'0 0.0
2016-Jul-26 14:17N 51°17' E 003°51'0 0.0
2016-Jul-26 13:29N 51°17' E 003°51'0 0.0
2016-Jul-26 12:26N 51°17' E 003°51'0 0.0
2016-Jul-26 11:32N 51°17' E 003°51'0 0.0
2016-Jul-26 10:26N 51°17' E 003°51'0 0.0
2016-Jul-26 09:32N 51°17' E 003°51'0 0.0
2016-Jul-26 08:29N 51°17' E 003°51'0 0.0
2016-Jul-26 07:32N 51°17' E 003°51'0 0.0
2016-Jul-26 06:29N 51°17' E 003°51'0 0.0
2016-Jul-26 05:29N 51°17' E 003°51'0 0.0
2016-Jul-26 04:32N 51°17' E 003°51'0 0.0
2016-Jul-26 03:29N 51°17' E 003°51'0 0.0
2016-Jul-26 02:26N 51°17' E 003°51'2 1.9
2016-Jul-26 01:33N 51°18' E 003°50'2 2.1
2016-Jul-26 00:33N 51°20' E 003°49'4 4.4
2016-Jul-25 23:33N 51°23' E 003°43'8 7.7
2016-Jul-25 22:34N 51°27' E 003°33'1010.4
2016-Jul-25 21:33N 51°35' E 003°23'1110.7
2016-Jul-25 20:32N 51°45' E 003°16'1 1.2
2016-Jul-25 19:30N 51°46' E 003°17'0 0.0
2016-Jul-25 18:33N 51°46' E 003°17'0 0.0
2016-Jul-25 17:24N 51°46' E 003°17'0 0.0
2016-Jul-25 16:30N 51°46' E 003°17'0 0.0
2016-Jul-25 15:33N 51°46' E 003°17'0 0.1
2016-Jul-25 14:27N 51°46' E 003°17'0 0.0
2016-Jul-25 08:04N 51°46' E 003°17'0 0.0
2016-Jul-25 07:31N 51°46' E 003°17'0 0.0
2016-Jul-25 06:28N 51°46' E 003°17'0 0.0
2016-Jul-25 03:31N 51°46' E 003°17'0 0.0
2016-Jul-24 20:28N 51°46' E 003°17'0 0.0
2016-Jul-24 19:28N 51°46' E 003°17'0 0.0
2016-Jul-24 18:25N 51°46' E 003°17'9 9.9
2016-Jul-24 17:33N 51°46' E 003°03'1212.2
2016-Jul-24 16:33N 51°46' E 002°44'1312.6
2016-Jul-24 15:33N 51°39' E 002°28'1312.9
2016-Jul-24 14:34N 51°30' E 002°13'1111.0
2016-Jul-24 13:34N 51°24' E 001°57'1110.9
2016-Jul-24 12:33N 51°28' E 001°41'10 9.5
2016-Jul-24 11:34N 51°28' E 001°26'1111.1
2016-Jul-24 10:33N 51°29' E 001°08'1212.0
2016-Jul-24 09:33N 51°29' E 000°49'1313.0
2016-Jul-24 08:33N 51°29' E 000°28'9 8.7
2016-Jul-24 07:33N 51°29' E 000°14'4 4.1
2016-Jul-24 06:33N 51°31' E 000°08'0 0.0
2016-Jul-24 05:33N 51°31' E 000°08'0 0.0
2016-Jul-24 04:33N 51°31' E 000°08'0 0.0
2016-Jul-24 03:33N 51°31' E 000°08'0 0.0
2016-Jul-24 02:33N 51°31' E 000°08'0 0.0
2016-Jul-24 01:33N 51°31' E 000°08'0 0.0
2016-Jul-24 00:33N 51°31' E 000°08'0 0.0
2016-Jul-23 23:33N 51°31' E 000°08'0 0.0
2016-Jul-23 22:33N 51°31' E 000°08'0 0.0
2016-Jul-23 21:33N 51°31' E 000°08'0 0.0
2016-Jul-23 20:33N 51°31' E 000°08'0 0.0
2016-Jul-23 19:33N 51°31' E 000°08'0 0.0
2016-Jul-23 18:33N 51°31' E 000°08'0 0.0
2016-Jul-23 17:33N 51°31' E 000°08'0 0.0
2016-Jul-23 16:33N 51°31' E 000°08'0 0.0
2016-Jul-23 15:33N 51°31' E 000°08'0 0.0
2016-Jul-23 14:33N 51°31' E 000°08'0 0.0
2016-Jul-23 13:27N 51°31' E 000°08'0 0.0
2016-Jul-23 12:09N 51°31' E 000°08'3 4.4
2016-Jul-23 11:33N 51°29' E 000°11'1010.0
2016-Jul-23 10:34N 51°29' E 000°28'1212.1
2016-Jul-23 09:33N 51°29' E 000°47'1111.2
2016-Jul-23 08:34N 51°30' E 001°05'1010.2
2016-Jul-23 07:34N 51°29' E 001°21'6 6.0
2016-Jul-23 06:34N 51°29' E 001°31'2 1.1
2016-Jul-23 04:31N 51°31' E 001°31'0 0.0
2016-Jul-23 03:31N 51°31' E 001°31'0 0.0
2016-Jul-23 02:32N 51°31' E 001°31'0 0.0
2016-Jul-23 01:32N 51°31' E 001°31'0 0.0
2016-Jul-23 00:31N 51°31' E 001°31'9 9.0
2016-Jul-22 23:33N 51°35' E 001°43'1313.4
2016-Jul-22 22:33N 51°49' E 001°43'1414.0
2016-Jul-22 21:33N 52°03' E 001°48'1413.8
2016-Jul-22 20:34N 52°16' E 001°54'1312.8
2016-Jul-22 19:33N 52°28' E 001°60'1111.2
2016-Jul-22 18:32N 52°40' E 002°03'1010.2
2016-Jul-22 17:33N 52°48' E 001°54'9 9.6
2016-Jul-22 16:33N 52°54' E 001°41'9 8.9
2016-Jul-22 15:33N 53°00' E 001°31'9 9.2
2016-Jul-22 14:33N 53°07' E 001°21'9 9.4
2016-Jul-22 13:33N 53°14' E 001°10'9 9.5
2016-Jul-22 12:34N 53°21' E 000°59'1010.2
2016-Jul-22 11:33N 53°26' E 000°44'1010.6
2016-Jul-22 10:33N 53°31' E 000°28'1110.9
2016-Jul-22 09:33N 53°33' E 000°10'1313.1
2016-Jul-22 08:34N 53°38' W 000°10'1 1.1
2016-Jul-22 07:33N 53°38' W 000°12'0 0.0
2016-Jul-22 04:33N 53°38' W 000°12'0 0.0
2016-Jul-22 03:33N 53°38' W 000°12'0 0.0
2016-Jul-22 02:33N 53°38' W 000°12'0 0.0
2016-Jul-22 01:30N 53°38' W 000°12'0 0.0
2016-Jul-22 00:24N 53°38' W 000°12'0 0.0
2016-Jul-21 23:24N 53°38' W 000°12'0 0.0
2016-Jul-21 22:27N 53°38' W 000°12'0 0.0
2016-Jul-21 21:30N 53°38' W 000°12'0 0.0
2016-Jul-21 20:27N 53°38' W 000°12'0 0.0
2016-Jul-21 19:33N 53°38' W 000°12'0 0.0
2016-Jul-21 18:33N 53°38' W 000°12'0 0.2
2016-Jul-21 17:34N 53°38' W 000°11'2 2.3
2016-Jul-21 16:33N 53°38' W 000°08'1110.8
2016-Jul-21 15:33N 53°33' E 000°09'6 5.9
2016-Jul-21 14:33N 53°33' E 000°19'1411.6
2016-Jul-21 13:21N 53°27' E 000°40'1113.0
2016-Jul-21 12:29N 53°21' E 000°56'1412.6
2016-Jul-21 11:24N 53°12' E 001°13'911.1
2016-Jul-21 10:33N 53°05' E 001°24'10 9.8
2016-Jul-21 09:33N 52°58' E 001°34'9 8.7
2016-Jul-21 08:33N 52°52' E 001°45'9 8.7
2016-Jul-21 07:33N 52°47' E 001°57'  

Dump ship's entire track history